Time;durP1;ratioP1;P1;durP2;ratioP2;P2;SDS_P1;SDS_P2;PMS_P1;PMS_P2;Temp;Humidity;BMP_temperature;BMP_pressure;BME280_temperature;BME280_humidity;BME280_pressure;Samples;Min_cycle;Max_cycle;Signal;HPM_P1;HPM_P2
2023/01/04 00:01:01;;;;;;;4.20;2.20;;;9.70;99.90;;;;;;4995755;28;20315;-90
2023/01/04 00:03:36;;;;;;;3.27;1.87;;;9.70;99.90;;;;;;4995694;28;20235;-91
2023/01/04 00:06:08;;;;;;;3.67;1.83;;;9.60;99.90;;;;;;4995641;28;20306;-93
2023/01/04 00:08:41;;;;;;;3.17;1.70;;;9.70;99.90;;;;;;4995671;28;20303;-91
2023/01/04 00:11:12;;;;;;;3.93;2.17;;;9.70;99.90;;;;;;4995680;28;20233;-90
2023/01/04 00:13:45;;;;;;;2.67;1.80;;;9.70;99.90;;;;;;4995914;28;20209;-94
2023/01/04 00:16:16;;;;;;;4.27;2.00;;;9.80;99.90;;;;;;4995889;28;20212;-90
2023/01/04 00:18:47;;;;;;;2.67;1.87;;;9.80;99.90;;;;;;4994869;28;20284;-91
2023/01/04 00:21:26;;;;;;;6.73;2.23;;;9.90;99.90;;;;;;4995329;28;20220;-91
2023/01/04 00:23:58;;;;;;;3.67;2.10;;;9.80;99.90;;;;;;4995961;28;20200;-90
2023/01/04 00:26:33;;;;;;;4.37;2.13;;;9.80;99.90;;;;;;4995455;28;20326;-91
2023/01/04 00:29:07;;;;;;;4.07;2.23;;;9.90;99.90;;;;;;4995326;28;20203;-91
2023/01/04 00:31:43;;;;;;;7.07;2.57;;;9.90;99.90;;;;;;4995460;28;20586;-91
2023/01/04 00:34:17;;;;;;;2.30;2.10;;;9.90;99.90;;;;;;4995917;28;20603;-90
2023/01/04 00:36:49;;;;;;;4.40;2.20;;;9.90;99.90;;;;;;4995243;28;20607;-91
2023/01/04 00:39:18;;;;;;;3.60;2.10;;;9.90;99.90;;;;;;4995641;28;20220;-92
2023/01/04 00:41:48;;;;;;;3.80;2.07;;;9.90;99.90;;;;;;4995215;28;20597;-91
2023/01/04 00:44:16;;;;;;;3.23;2.37;;;9.90;99.90;;;;;;4995279;28;20210;-89
2023/01/04 00:46:47;;;;;;;5.80;2.37;;;9.90;99.90;;;;;;4977870;28;20236;-90
2023/01/04 00:49:16;;;;;;;4.73;2.30;;;9.90;99.90;;;;;;4995734;28;20219;-91
2023/01/04 00:51:49;;;;;;;5.03;2.43;;;9.90;99.90;;;;;;4995147;28;20259;-90
2023/01/04 00:54:19;;;;;;;2.97;1.90;;;10.00;99.90;;;;;;4995500;28;20307;-91
2023/01/04 00:56:47;;;;;;;5.37;2.50;;;9.90;99.90;;;;;;4994559;28;20243;-91
2023/01/04 00:59:16;;;;;;;3.83;2.57;;;9.90;99.90;;;;;;4994810;28;20200;-91
2023/01/04 01:01:47;;;;;;;3.10;2.50;;;9.90;99.90;;;;;;4995085;28;20220;-94
2023/01/04 01:04:23;;;;;;;3.80;2.40;;;9.90;99.90;;;;;;4995258;28;20571;-91
2023/01/04 01:06:57;;;;;;;3.30;2.37;;;10.00;99.90;;;;;;4994671;28;20242;-88
2023/01/04 01:09:27;;;;;;;3.77;2.30;;;10.00;99.90;;;;;;4995073;28;20689;-92
2023/01/04 01:11:55;;;;;;;11.77;3.03;;;10.00;99.90;;;;;;4994652;28;20280;-91
2023/01/04 01:14:26;;;;;;;3.03;2.53;;;10.10;99.90;;;;;;4995122;28;20573;-93
2023/01/04 01:16:55;;;;;;;4.13;2.80;;;10.10;99.90;;;;;;4994862;28;20213;-91
2023/01/04 01:19:27;;;;;;;4.67;2.37;;;10.10;99.90;;;;;;4994681;28;20235;-92
2023/01/04 01:21:55;;;;;;;3.70;2.77;;;10.10;99.90;;;;;;4994978;28;20301;-90
2023/01/04 01:24:28;;;;;;;6.50;3.42;;;10.30;99.90;;;;;;4994055;28;20478;-92
2023/01/04 01:26:57;;;;;;;3.37;2.63;;;10.20;99.90;;;;;;4994521;28;20238;-91
2023/01/04 01:29:25;;;;;;;3.33;2.50;;;10.20;99.90;;;;;;4995952;28;20208;-90
2023/01/04 01:31:55;;;;;;;6.87;2.90;;;10.20;99.90;;;;;;4981294;28;20215;-89
2023/01/04 01:34:27;;;;;;;5.03;2.40;;;10.20;99.90;;;;;;4998270;28;20621;-90
2023/01/04 01:36:57;;;;;;;2.43;2.20;;;10.20;99.90;;;;;;4998613;28;20312;-90
2023/01/04 01:39:27;;;;;;;5.00;2.57;;;10.20;99.90;;;;;;4999031;28;20573;-88
2023/01/04 01:42:02;;;;;;;3.63;2.60;;;10.20;99.90;;;;;;4998614;28;20559;-90
2023/01/04 01:45:00;;;;;;;5.50;2.23;;;10.20;99.90;;;;;;4998290;28;20216;-91
2023/01/04 01:47:39;;;;;;;4.00;2.30;;;10.30;99.90;;;;;;4998210;28;20232;-90
2023/01/04 01:50:42;;;;;;;4.67;2.53;;;10.20;99.90;;;;;;4998383;28;20312;-92
2023/01/04 01:53:15;;;;;;;6.47;2.73;;;10.30;99.90;;;;;;4981098;28;20231;-92
2023/01/04 01:55:44;;;;;;;3.77;2.30;;;10.30;99.90;;;;;;4998155;28;20244;-89
2023/01/04 01:58:18;;;;;;;5.37;2.67;;;10.30;99.90;;;;;;4994621;28;20608;-91
2023/01/04 02:00:50;;;;;;;4.33;2.70;;;10.40;99.90;;;;;;4997992;28;20224;-92
2023/01/04 02:03:26;;;;;;;6.53;2.87;;;10.40;99.90;;;;;;4997807;28;20208;-91
2023/01/04 02:05:57;;;;;;;3.50;2.50;;;10.40;99.90;;;;;;4997897;28;20250;-89
2023/01/04 02:08:26;;;;;;;4.73;2.53;;;10.40;99.90;;;;;;4998260;28;20569;-92
2023/01/04 02:10:58;;;;;;;5.33;2.70;;;10.50;99.90;;;;;;4997599;28;20238;-88
2023/01/04 02:14:25;;;;;;;4.33;2.07;;;10.50;99.90;;;;;;4997913;28;20660;-91
2023/01/04 02:16:26;;;;;;;2.97;2.37;;;10.50;99.90;;;;;;4997676;28;20205;-89
2023/01/04 02:19:01;;;;;;;3.17;2.10;;;10.60;99.90;;;;;;4997717;28;20215;-91
2023/01/04 02:21:39;;;;;;;5.85;2.92;;;10.60;99.90;;;;;;4996916;28;20440;-87
2023/01/04 02:24:32;;;;;;;3.40;2.43;;;10.70;99.90;;;;;;4997603;28;20208;-90
2023/01/04 02:27:26;;;;;;;4.67;2.50;;;10.80;99.90;;;;;;4996230;28;20228;-92
2023/01/04 02:30:46;;;;;;;4.17;2.33;;;10.60;99.90;;;;;;4997578;28;20316;-92
2023/01/04 02:33:34;;;;;;;3.60;2.20;;;10.60;99.90;;;;;;4957368;28;20197;-89
2023/01/04 02:36:13;;;;;;;3.60;2.40;;;10.60;99.90;;;;;;4997612;28;20670;-91
2023/01/04 02:38:53;;;;;;;4.97;2.30;;;10.60;99.90;;;;;;4980582;28;20208;-92
2023/01/04 02:41:33;;;;;;;2.87;2.03;;;10.60;99.90;;;;;;4996697;28;20654;-90
2023/01/04 02:47:04;;;;;;;3.23;1.93;;;10.60;99.90;;;;;;4997407;28;20220;-92
2023/01/04 02:52:25;;;;;;;3.40;2.20;;;10.70;99.90;;;;;;4997289;28;20320;-87
2023/01/04 02:54:58;;;;;;;6.27;2.43;;;10.60;99.90;;;;;;4997439;28;20212;-93
2023/01/04 02:57:43;;;;;;;6.63;2.30;;;10.60;99.90;;;;;;4997246;28;20205;-91
2023/01/04 03:00:21;;;;;;;4.87;2.60;;;10.70;99.90;;;;;;4996650;28;20225;-92
2023/01/04 03:06:16;;;;;;;3.40;2.07;;;10.70;99.90;;;;;;4996317;28;20228;-93
2023/01/04 03:08:53;;;;;;;5.03;2.50;;;10.80;99.90;;;;;;4997158;28;20201;-93
2023/01/04 03:14:30;;;;;;;3.97;2.20;;;10.80;99.90;;;;;;4997081;28;20262;-90
2023/01/04 03:17:03;;;;;;;5.95;2.22;;;10.80;99.90;;;;;;4978894;28;21161;-89
2023/01/04 03:19:53;;;;;;;5.93;3.00;;;10.90;99.90;;;;;;4996700;28;20601;-91
2023/01/04 03:36:54;;;;;;;4.30;1.97;;;10.90;99.90;;;;;;4996445;28;20211;-92
2023/01/04 03:51:04;;;;;;;3.63;2.00;;;10.80;99.90;;;;;;4998269;28;20695;-92
2023/01/04 03:53:35;;;;;;;3.70;1.87;;;10.90;99.90;;;;;;4999766;28;20267;-93
2023/01/04 03:56:07;;;;;;;6.23;2.20;;;11.00;99.90;;;;;;4999449;28;20653;-93
2023/01/04 03:58:35;;;;;;;2.30;2.10;;;11.00;99.90;;;;;;5001714;28;20208;-94
2023/01/04 04:01:06;;;;;;;4.57;1.80;;;11.00;99.90;;;;;;5001612;28;20307;-93
2023/01/04 04:09:08;;;;;;;3.10;1.63;;;11.10;99.90;;;;;;4996380;28;20259;-92
2023/01/04 04:11:39;;;;;;;2.07;1.97;;;11.10;99.90;;;;;;4978615;28;20228;-89
2023/01/04 04:14:09;;;;;;;4.10;1.93;;;11.10;99.90;;;;;;4995902;28;20563;-89
2023/01/04 04:16:39;;;;;;;5.10;1.67;;;11.20;99.90;;;;;;4996191;28;20222;-90
2023/01/04 04:19:12;;;;;;;6.57;1.60;;;11.10;99.90;;;;;;4996003;28;20200;-89
2023/01/04 04:21:42;;;;;;;3.23;1.70;;;11.20;99.90;;;;;;4978290;28;20224;-90
2023/01/04 04:24:17;;;;;;;3.07;1.60;;;11.20;99.90;;;;;;4978508;28;20662;-91
2023/01/04 04:26:45;;;;;;;3.73;1.33;;;11.20;99.90;;;;;;4996184;28;20254;-92
2023/01/04 04:29:13;;;;;;;6.60;1.80;;;11.20;99.90;;;;;;4995543;28;20219;-91
2023/01/04 04:31:44;;;;;;;2.90;1.33;;;11.20;99.90;;;;;;4995647;28;20239;-91
2023/01/04 04:34:17;;;;;;;1.67;1.40;;;11.20;99.90;;;;;;4995579;28;20292;-91
2023/01/04 04:36:47;;;;;;;3.30;1.60;;;11.20;99.90;;;;;;4995766;28;20212;-91
2023/01/04 04:39:17;;;;;;;3.43;1.10;;;11.30;99.90;;;;;;4995794;28;20253;-90
2023/01/04 04:41:52;;;;;;;2.53;1.30;;;11.30;99.90;;;;;;4995865;28;20312;-89
2023/01/04 04:44:25;;;;;;;3.07;1.10;;;11.40;99.90;;;;;;4995550;28;20197;-90
2023/01/04 04:46:55;;;;;;;2.53;1.40;;;11.40;99.90;;;;;;4995568;28;20248;-91
2023/01/04 04:49:25;;;;;;;2.27;1.40;;;11.40;99.90;;;;;;4995365;28;20305;-90
2023/01/04 04:51:56;;;;;;;1.93;1.20;;;11.40;99.90;;;;;;4995354;28;20229;-89
2023/01/04 04:54:25;;;;;;;1.87;1.20;;;11.40;99.90;;;;;;4996702;28;20201;-93
2023/01/04 04:56:56;;;;;;;1.40;1.00;;;11.50;99.90;;;;;;4996888;28;20265;-91
2023/01/04 04:59:26;;;;;;;4.10;1.27;;;11.50;99.90;;;;;;4996009;28;20218;-92
2023/01/04 05:01:53;;;;;;;2.23;1.20;;;11.40;99.90;;;;;;4995984;28;20276;-89
2023/01/04 05:04:22;;;;;;;4.20;2.40;;;11.50;99.90;;;;;;4997263;28;20233;-91
2023/01/04 05:06:52;;;;;;;2.13;1.40;;;11.50;99.90;;;;;;5000261;28;20235;-90
2023/01/04 05:09:20;;;;;;;3.13;1.10;;;11.50;99.90;;;;;;5000453;28;20195;-90
2023/01/04 05:14:35;;;;;;;2.37;1.13;;;11.50;99.90;;;;;;4999607;28;20600;-91
2023/01/04 05:17:08;;;;;;;1.90;1.00;;;11.50;99.90;;;;;;4999671;28;20594;-93
2023/01/04 05:19:41;;;;;;;2.60;1.20;;;11.60;99.90;;;;;;4999335;28;20260;-92
2023/01/04 05:22:17;;;;;;;2.63;1.17;;;11.50;99.90;;;;;;4999844;28;20296;-88
2023/01/04 05:24:46;;;;;;;2.20;1.20;;;11.40;99.90;;;;;;4999824;28;20208;-93
2023/01/04 05:27:13;;;;;;;2.00;1.20;;;11.40;99.90;;;;;;4999553;28;20239;-90
2023/01/04 05:32:49;;;;;;;3.40;1.90;;;11.30;99.90;;;;;;4999057;28;20268;-91
2023/01/04 05:35:22;;;;;;;2.30;1.47;;;11.40;99.90;;;;;;4998816;28;20560;-90
2023/01/04 05:37:50;;;;;;;1.30;1.20;;;11.40;99.90;;;;;;5004019;28;20256;-92
2023/01/04 05:40:28;;;;;;;3.97;1.20;;;11.30;99.90;;;;;;5001245;28;20229;-93
2023/01/04 05:42:58;;;;;;;2.37;1.40;;;11.40;99.90;;;;;;5001047;28;20563;-93
2023/01/04 05:45:27;;;;;;;1.27;1.00;;;11.40;99.90;;;;;;4983782;28;20220;-92
2023/01/04 05:47:56;;;;;;;3.73;1.00;;;11.50;99.90;;;;;;5000507;28;20223;-89
2023/01/04 05:50:26;;;;;;;3.37;1.13;;;11.50;99.90;;;;;;4983015;28;20226;-90
2023/01/04 05:52:58;;;;;;;0.90;0.83;;;11.60;99.90;;;;;;5000663;28;20241;-89
2023/01/04 05:55:25;;;;;;;4.20;1.37;;;11.50;99.90;;;;;;4999386;28;20227;-92
2023/01/04 05:57:53;;;;;;;1.80;1.00;;;11.60;99.90;;;;;;5000214;28;20208;-90
2023/01/04 06:00:39;;;;;;;2.00;1.03;;;11.60;99.90;;;;;;5000894;28;20793;-91
2023/01/04 06:03:23;;;;;;;3.23;1.07;;;11.70;99.90;;;;;;4962669;28;20213;-93
2023/01/04 06:06:03;;;;;;;2.67;0.90;;;11.80;99.90;;;;;;4981105;28;20302;-91
2023/01/04 06:08:58;;;;;;;3.33;0.80;;;11.80;99.90;;;;;;4970027;28;20222;-91
2023/01/04 06:14:48;;;;;;;1.63;1.13;;;11.80;99.90;;;;;;4991916;28;20203;-91
2023/01/04 06:17:20;;;;;;;0.97;0.83;;;11.80;99.90;;;;;;4993365;28;20219;-92
2023/01/04 06:20:10;;;;;;;1.60;0.83;;;11.80;99.90;;;;;;5001049;28;20242;-94
2023/01/04 06:22:41;;;;;;;2.60;1.10;;;11.70;99.90;;;;;;5001561;28;20238;-90
2023/01/04 06:25:10;;;;;;;4.50;0.90;;;11.70;99.90;;;;;;5001331;28;20237;-92
2023/01/04 06:27:37;;;;;;;3.17;1.07;;;11.80;99.90;;;;;;5000757;28;20206;-91
2023/01/04 06:30:05;;;;;;;1.10;0.73;;;11.70;99.90;;;;;;5000897;28;20208;-94
2023/01/04 06:32:34;;;;;;;1.80;0.90;;;11.70;99.90;;;;;;5000860;28;20195;-93
2023/01/04 06:35:01;;;;;;;1.63;0.90;;;11.80;99.90;;;;;;5001785;28;20202;-92
2023/01/04 06:37:28;;;;;;;2.90;0.97;;;11.80;99.90;;;;;;5001328;28;20211;-90
2023/01/04 06:40:02;;;;;;;1.77;1.13;;;11.80;99.90;;;;;;4983129;28;20777;-93
2023/01/04 06:42:46;;;;;;;2.93;1.00;;;11.80;99.90;;;;;;4990970;28;20218;-92
2023/01/04 06:45:14;;;;;;;3.30;1.00;;;11.90;99.90;;;;;;4989936;28;20218;-94
2023/01/04 06:47:48;;;;;;;1.90;1.10;;;12.00;99.90;;;;;;4989782;28;20246;-93
2023/01/04 06:50:18;;;;;;;3.20;1.30;;;11.90;99.90;;;;;;4983166;28;20250;-90
2023/01/04 06:52:45;;;;;;;1.40;0.90;;;12.00;99.90;;;;;;4979107;28;20205;-91
2023/01/04 06:55:12;;;;;;;4.83;1.10;;;12.00;99.90;;;;;;4961534;28;20211;-90
2023/01/04 06:57:41;;;;;;;2.57;0.83;;;12.00;99.90;;;;;;4978726;28;20294;-89
2023/01/04 07:00:15;;;;;;;1.63;0.70;;;12.10;99.90;;;;;;4978771;28;20222;-89
2023/01/04 07:02:45;;;;;;;3.03;1.00;;;12.00;99.90;;;;;;4979541;28;20218;-89
2023/01/04 07:05:20;;;;;;;2.40;1.03;;;12.00;99.90;;;;;;4978558;28;20190;-90
2023/01/04 07:07:50;;;;;;;1.37;0.80;;;12.10;99.90;;;;;;4977710;28;20227;-90
2023/01/04 07:10:23;;;;;;;3.70;1.00;;;12.10;99.90;;;;;;4977974;28;20231;-89
2023/01/04 07:12:53;;;;;;;1.87;0.90;;;12.10;99.90;;;;;;4960996;28;20215;-90
2023/01/04 07:15:21;;;;;;;1.83;0.93;;;12.10;99.90;;;;;;4977639;28;20214;-90
2023/01/04 07:17:49;;;;;;;3.80;1.00;;;12.10;99.90;;;;;;4962709;28;20211;-88
2023/01/04 07:20:23;;;;;;;2.30;0.93;;;12.20;99.90;;;;;;4996991;28;20223;-91
2023/01/04 07:22:51;;;;;;;4.00;1.13;;;12.20;99.90;;;;;;4997525;28;20206;-89
2023/01/04 07:25:19;;;;;;;2.13;1.10;;;12.20;99.90;;;;;;4996778;28;20437;-89
2023/01/04 07:27:51;;;;;;;3.83;1.30;;;12.30;99.90;;;;;;4996547;28;20223;-90
2023/01/04 07:30:25;;;;;;;2.40;0.90;;;12.30;99.90;;;;;;4996702;28;20235;-90
2023/01/04 07:32:54;;;;;;;1.90;1.20;;;12.40;99.90;;;;;;4997035;28;20253;-91
2023/01/04 07:35:28;;;;;;;1.30;0.70;;;12.40;99.90;;;;;;4996537;28;20214;-91
2023/01/04 07:38:01;;;;;;;1.60;1.23;;;12.40;99.90;;;;;;4996803;28;20803;-91
2023/01/04 07:40:31;;;;;;;3.57;1.10;;;12.40;99.90;;;;;;4996714;28;20231;-88
2023/01/04 07:43:00;;;;;;;2.03;0.90;;;12.30;99.90;;;;;;4996940;28;20207;-91
2023/01/04 07:45:34;;;;;;;3.43;1.00;;;12.40;99.90;;;;;;4996852;28;20211;-89
2023/01/04 07:48:05;;;;;;;2.70;1.07;;;12.40;99.90;;;;;;4997057;28;20232;-90
2023/01/04 07:50:37;;;;;;;1.47;0.83;;;12.40;99.90;;;;;;4996323;28;20235;-90
2023/01/04 07:53:06;;;;;;;2.17;1.17;;;12.30;99.90;;;;;;4996960;28;20208;-88
2023/01/04 07:55:41;;;;;;;3.67;1.00;;;12.40;99.90;;;;;;4996408;28;20230;-92
2023/01/04 07:58:10;;;;;;;0.83;0.73;;;12.30;99.90;;;;;;4996266;28;20229;-91
2023/01/04 08:00:39;;;;;;;2.10;1.10;;;12.30;99.90;;;;;;4996319;28;20252;-92
2023/01/04 08:03:09;;;;;;;3.23;0.80;;;12.30;99.90;;;;;;4996536;28;20302;-92
2023/01/04 08:05:41;;;;;;;2.13;0.93;;;12.20;99.90;;;;;;4996733;28;20200;-94
2023/01/04 08:08:14;;;;;;;2.07;1.17;;;12.30;99.90;;;;;;4996788;28;20265;-87
2023/01/04 08:10:44;;;;;;;2.33;0.97;;;12.40;99.90;;;;;;4978924;28;20223;-94
2023/01/04 08:13:11;;;;;;;1.60;0.80;;;12.20;99.90;;;;;;4976600;28;20210;-92
2023/01/04 08:15:41;;;;;;;1.73;1.10;;;12.20;99.90;;;;;;4996031;28;20204;-87
2023/01/04 08:18:09;;;;;;;1.90;1.00;;;12.20;99.90;;;;;;4997207;28;20211;-90
2023/01/04 08:20:37;;;;;;;2.27;1.13;;;12.30;99.90;;;;;;4995841;28;20225;-88
2023/01/04 08:23:06;;;;;;;1.90;1.10;;;12.20;99.90;;;;;;4996045;28;20529;-90
2023/01/04 08:25:39;;;;;;;3.10;1.00;;;12.20;99.90;;;;;;4996264;28;20211;-93
2023/01/04 08:28:07;;;;;;;1.23;0.90;;;12.30;99.90;;;;;;4980016;28;20216;-90
2023/01/04 08:30:34;;;;;;;3.57;1.10;;;12.30;99.90;;;;;;4996270;28;20270;-90
2023/01/04 08:33:01;;;;;;;2.20;1.10;;;12.30;99.90;;;;;;4996939;28;20241;-90
2023/01/04 08:35:29;;;;;;;4.47;1.10;;;12.30;99.90;;;;;;4978462;28;20285;-90
2023/01/04 08:37:56;;;;;;;2.63;1.40;;;12.30;99.90;;;;;;4995779;28;20547;-87
2023/01/04 08:40:24;;;;;;;2.20;1.40;;;12.40;99.90;;;;;;4995300;28;20231;-94
2023/01/04 08:42:51;;;;;;;1.70;1.60;;;12.40;99.90;;;;;;4995314;28;20490;-92
2023/01/04 08:45:21;;;;;;;5.47;1.80;;;12.50;99.90;;;;;;4996243;28;20276;-93
2023/01/04 08:47:49;;;;;;;1.40;1.30;;;12.50;99.90;;;;;;4996063;28;20220;-93
2023/01/04 08:50:19;;;;;;;3.03;1.47;;;12.50;99.90;;;;;;4996775;28;20227;-91
2023/01/04 08:52:46;;;;;;;2.07;1.17;;;12.50;99.90;;;;;;4995622;28;20215;-92
2023/01/04 08:55:14;;;;;;;1.77;1.23;;;12.60;99.90;;;;;;4997683;28;20275;-93
2023/01/04 08:57:44;;;;;;;4.17;1.53;;;12.60;99.90;;;;;;4999714;28;20226;-93
2023/01/04 09:00:13;;;;;;;2.00;1.80;;;12.60;99.90;;;;;;4997523;28;20242;-92
2023/01/04 09:02:46;;;;;;;6.17;1.70;;;12.60;99.90;;;;;;4996435;28;20208;-88
2023/01/04 09:05:13;;;;;;;5.57;1.90;;;12.70;99.90;;;;;;4997041;28;20215;-89
2023/01/04 09:07:46;;;;;;;3.23;1.13;;;12.70;99.90;;;;;;4999620;28;20287;-90
2023/01/04 09:10:13;;;;;;;3.67;1.60;;;12.70;99.90;;;;;;4996847;28;20459;-91
2023/01/04 09:12:41;;;;;;;6.30;1.50;;;12.70;99.90;;;;;;4997258;28;20262;-94
2023/01/04 09:15:11;;;;;;;2.83;1.03;;;12.80;99.90;;;;;;4998931;28;20639;-92
2023/01/04 09:17:38;;;;;;;3.37;1.10;;;12.80;99.90;;;;;;4999147;28;20212;-92
2023/01/04 09:20:07;;;;;;;3.50;1.40;;;12.80;99.90;;;;;;4987102;28;20434;-93
2023/01/04 09:22:34;;;;;;;2.90;1.37;;;12.90;99.90;;;;;;4995522;28;20186;-92
2023/01/04 09:25:02;;;;;;;4.63;1.93;;;12.80;99.90;;;;;;5017192;28;20216;-94
2023/01/04 09:27:31;;;;;;;3.70;1.53;;;12.80;99.90;;;;;;5016819;28;20196;-93
2023/01/04 09:29:59;;;;;;;4.87;1.50;;;12.80;99.90;;;;;;5013666;28;20231;-95
2023/01/04 09:32:27;;;;;;;3.00;1.27;;;12.70;99.90;;;;;;4996164;28;20212;-90
2023/01/04 09:34:55;;;;;;;3.73;1.43;;;12.70;99.90;;;;;;5010924;28;20238;-94
2023/01/04 09:37:32;;;;;;;3.57;1.30;;;12.60;99.90;;;;;;4997989;28;20270;-91
2023/01/04 09:39:59;;;;;;;3.13;1.50;;;12.60;99.90;;;;;;4995853;28;20870;-91
2023/01/04 09:42:32;;;;;;;1.93;1.03;;;12.60;99.90;;;;;;4995858;28;20222;-90
2023/01/04 09:45:16;;;;;;;3.10;1.30;;;12.50;99.90;;;;;;4996406;28;20196;-93
2023/01/04 09:47:56;;;;;;;2.17;1.00;;;12.50;99.90;;;;;;4995927;28;20235;-94
2023/01/04 09:50:28;;;;;;;2.10;0.87;;;12.50;99.90;;;;;;4996576;28;20310;-94
2023/01/04 09:53:10;;;;;;;3.03;1.20;;;12.50;99.90;;;;;;4999211;28;20207;-93
2023/01/04 09:55:44;;;;;;;1.77;1.37;;;12.40;99.90;;;;;;4998830;28;20224;-93
2023/01/04 09:58:24;;;;;;;4.03;0.90;;;12.40;99.90;;;;;;4999000;28;20218;-93
2023/01/04 10:00:57;;;;;;;2.70;0.70;;;12.40;99.90;;;;;;4999225;28;20294;-94
2023/01/04 10:03:33;;;;;;;2.43;1.03;;;12.30;99.90;;;;;;4981686;28;20222;-94
2023/01/04 10:06:10;;;;;;;4.67;1.20;;;12.20;99.90;;;;;;4999089;28;20226;-92
2023/01/04 10:08:41;;;;;;;2.80;1.57;;;12.20;99.90;;;;;;4998257;28;20306;-93
2023/01/04 10:11:33;;;;;;;1.70;0.90;;;12.10;99.90;;;;;;4998737;28;20318;-91
2023/01/04 10:14:17;;;;;;;0.93;0.90;;;12.20;99.90;;;;;;4999612;28;20267;-94
2023/01/04 10:17:05;;;;;;;3.57;1.50;;;12.20;99.90;;;;;;4998726;28;20294;-96
2023/01/04 10:19:47;;;;;;;2.90;1.10;;;12.20;99.90;;;;;;4994671;28;20593;-91
2023/01/04 10:22:27;;;;;;;3.53;1.10;;;12.30;99.90;;;;;;4978451;28;20207;-86
2023/01/04 10:25:07;;;;;;;2.53;1.37;;;12.10;99.90;;;;;;4978804;28;20221;-84
2023/01/04 10:27:48;;;;;;;4.23;0.93;;;12.10;99.90;;;;;;4978589;28;20204;-88
2023/01/04 10:30:29;;;;;;;2.00;1.10;;;12.10;99.90;;;;;;4977776;28;20240;-87
2023/01/04 10:33:09;;;;;;;2.47;1.13;;;12.20;99.90;;;;;;4978242;28;20224;-89
2023/01/04 10:35:39;;;;;;;4.67;1.37;;;12.20;99.90;;;;;;4978366;28;20299;-92
2023/01/04 10:38:16;;;;;;;2.60;1.30;;;12.10;99.90;;;;;;4977563;28;20614;-90
2023/01/04 10:40:46;;;;;;;2.03;1.17;;;12.20;99.90;;;;;;4960036;28;20570;-88
2023/01/04 10:43:20;;;;;;;3.17;1.47;;;12.20;99.90;;;;;;4977339;28;20212;-92
2023/01/04 10:45:54;;;;;;;2.23;1.37;;;12.20;99.90;;;;;;4977105;28;20211;-88
2023/01/04 10:48:29;;;;;;;2.27;1.13;;;12.20;99.90;;;;;;4977180;28;20227;-92
2023/01/04 10:50:59;;;;;;;3.37;1.13;;;12.20;99.90;;;;;;4977269;28;20323;-91
2023/01/04 10:53:30;;;;;;;2.53;1.27;;;12.20;99.90;;;;;;4991732;28;20203;-92
2023/01/04 10:56:04;;;;;;;3.53;1.40;;;12.20;99.90;;;;;;4997160;28;20219;-89
2023/01/04 10:58:38;;;;;;;3.20;1.47;;;12.20;99.90;;;;;;4996988;28;20217;-91
2023/01/04 11:01:12;;;;;;;2.93;1.23;;;12.20;99.90;;;;;;4996716;28;20223;-89
2023/01/04 11:03:43;;;;;;;1.73;1.07;;;12.30;99.90;;;;;;4995743;28;20202;-91
2023/01/04 11:06:17;;;;;;;3.10;1.10;;;12.30;99.90;;;;;;4979303;28;20239;-91
2023/01/04 11:08:50;;;;;;;2.13;1.33;;;12.30;99.90;;;;;;4996335;28;20227;-91
2023/01/04 11:11:24;;;;;;;1.97;1.30;;;12.30;99.90;;;;;;4996725;28;20223;-90
2023/01/04 11:13:51;;;;;;;2.17;1.20;;;12.40;99.90;;;;;;4995921;28;20278;-87
2023/01/04 11:16:21;;;;;;;1.47;1.10;;;12.40;99.90;;;;;;4996700;28;20211;-86
2023/01/04 11:18:50;;;;;;;2.33;1.27;;;12.40;99.90;;;;;;4997229;28;20303;-90
2023/01/04 11:21:29;;;;;;;2.13;1.30;;;12.50;99.90;;;;;;4997183;28;20258;-91
2023/01/04 11:24:01;;;;;;;2.10;1.30;;;12.30;99.90;;;;;;4997416;28;20221;-87
2023/01/04 11:26:35;;;;;;;2.90;1.30;;;12.40;99.90;;;;;;4979879;28;20192;-89
2023/01/04 11:29:25;;;;;;;1.80;1.60;;;12.40;99.90;;;;;;4996276;28;20330;-88
2023/01/04 11:32:00;;;;;;;1.73;1.20;;;12.40;99.90;;;;;;4996579;28;20231;-90
2023/01/04 11:34:47;;;;;;;3.33;2.10;;;12.40;99.90;;;;;;4997026;28;20215;-91
2023/01/04 11:37:33;;;;;;;3.23;2.50;;;12.40;99.90;;;;;;4996330;28;20272;-90
2023/01/04 11:40:24;;;;;;;2.77;1.97;;;12.40;99.90;;;;;;4996545;28;20242;-89
2023/01/04 11:42:52;;;;;;;2.43;1.97;;;12.40;99.90;;;;;;4996322;28;20243;-90
2023/01/04 11:45:26;;;;;;;1.60;1.50;;;12.40;99.90;;;;;;4996197;28;20281;-90
2023/01/04 11:47:59;;;;;;;1.97;1.50;;;12.50;99.90;;;;;;4996440;28;20213;-91
2023/01/04 11:50:46;;;;;;;3.47;1.80;;;12.60;99.90;;;;;;4996648;28;20623;-89
2023/01/04 11:53:26;;;;;;;1.77;1.40;;;12.50;99.90;;;;;;4996509;28;20294;-86
2023/01/04 11:56:10;;;;;;;1.53;1.43;;;12.50;99.90;;;;;;4996119;28;20640;-89
2023/01/04 11:58:41;;;;;;;3.17;1.83;;;12.50;99.90;;;;;;4995971;28;20269;-90
2023/01/04 12:01:27;;;;;;;3.13;1.57;;;12.60;99.90;;;;;;4991962;28;20231;-92
2023/01/04 12:03:56;;;;;;;2.40;2.20;;;12.60;99.90;;;;;;4968382;28;20217;-89
2023/01/04 12:06:37;;;;;;;1.70;1.60;;;12.60;99.90;;;;;;4981497;28;20286;-88
2023/01/04 12:09:15;;;;;;;2.77;1.60;;;12.60;99.90;;;;;;4995951;28;20234;-90
2023/01/04 12:11:50;;;;;;;3.13;1.67;;;12.60;99.90;;;;;;4982827;28;20322;-92
2023/01/04 12:14:23;;;;;;;2.43;1.83;;;12.70;99.90;;;;;;4984009;28;20243;-89
2023/01/04 12:16:59;;;;;;;2.35;2.15;;;12.60;99.90;;;;;;4994807;28;20993;-90
2023/01/04 12:19:26;;;;;;;2.47;1.73;;;12.70;99.90;;;;;;4983434;28;20224;-90
2023/01/04 12:21:57;;;;;;;3.63;1.70;;;12.70;99.90;;;;;;4995129;28;20220;-88
2023/01/04 12:24:30;;;;;;;1.80;1.70;;;12.70;99.90;;;;;;4984593;28;20311;-90
2023/01/04 12:27:03;;;;;;;2.13;1.83;;;12.70;99.90;;;;;;4993607;28;20246;-92
2023/01/04 12:29:54;;;;;;;1.60;1.50;;;12.70;99.90;;;;;;4986025;28;20239;-92
2023/01/04 12:32:44;;;;;;;1.97;1.67;;;12.70;99.90;;;;;;4995673;28;20237;-88
2023/01/04 12:36:01;;;;;;;1.87;1.13;;;12.70;99.90;;;;;;4995784;28;20668;-89
2023/01/04 12:39:05;;;;;;;1.20;1.20;;;12.70;99.90;;;;;;4985682;28;20215;-91
2023/01/04 12:42:18;;;;;;;1.30;1.20;;;12.70;99.90;;;;;;4995227;28;20327;-93
2023/01/04 12:45:21;;;;;;;0.90;0.90;;;12.70;99.90;;;;;;4995884;28;20214;-90
2023/01/04 12:51:25;;;;;;;1.27;0.93;;;12.80;99.90;;;;;;4995594;28;20234;-91
2023/01/04 12:53:58;;;;;;;0.87;0.70;;;12.80;99.90;;;;;;4994630;28;20291;-88
2023/01/04 12:57:21;;;;;;;1.05;1.00;;;12.80;99.90;;;;;;4993302;28;20917;-91
2023/01/04 12:59:57;;;;;;;0.70;0.70;;;12.90;99.90;;;;;;4992207;28;20251;-90
2023/01/04 13:02:25;;;;;;;1.50;0.90;;;12.80;99.90;;;;;;4994702;28;20481;-92
2023/01/04 13:04:55;;;;;;;0.70;0.70;;;12.90;99.90;;;;;;4994948;28;20231;-92
2023/01/04 13:07:28;;;;;;;1.10;0.53;;;12.90;99.90;;;;;;4994428;28;20201;-91
2023/01/04 13:09:59;;;;;;;2.33;0.90;;;12.90;99.90;;;;;;4994122;28;20235;-92
2023/01/04 13:12:54;;;;;;;1.93;1.20;;;12.90;99.90;;;;;;4992532;28;20212;-92
2023/01/04 13:15:27;;;;;;;3.73;1.10;;;12.90;99.90;;;;;;4995515;28;20483;-94
2023/01/04 13:17:54;;;;;;;1.50;1.00;;;12.90;99.90;;;;;;4996834;28;20496;-94
2023/01/04 13:20:25;;;;;;;2.47;1.00;;;13.00;99.90;;;;;;4996646;28;20224;-93
2023/01/04 13:22:55;;;;;;;3.07;1.17;;;13.00;99.90;;;;;;4996797;28;20208;-95
2023/01/04 13:25:24;;;;;;;2.83;1.10;;;13.00;99.90;;;;;;4991917;28;20247;-96
2023/01/04 13:28:00;;;;;;;3.00;1.07;;;13.10;99.90;;;;;;5000219;28;20209;-92
2023/01/04 13:30:33;;;;;;;2.60;1.30;;;13.10;99.90;;;;;;5000919;28;20227;-92
2023/01/04 13:33:08;;;;;;;2.77;1.10;;;13.10;99.90;;;;;;5002269;28;20270;-96
2023/01/04 13:36:05;;;;;;;1.40;1.00;;;13.10;99.90;;;;;;5014185;28;20192;-94
2023/01/04 13:41:05;;;;;;;3.30;1.50;;;13.10;99.90;;;;;;5015695;28;20230;-90
2023/01/04 13:43:46;;;;;;;3.33;1.40;;;13.10;99.90;;;;;;5020243;28;20204;-86
2023/01/04 13:46:18;;;;;;;3.07;1.40;;;13.10;99.90;;;;;;5003385;28;20208;-89
2023/01/04 13:48:47;;;;;;;4.10;1.53;;;13.10;99.90;;;;;;5023092;28;20207;-81
2023/01/04 13:51:17;;;;;;;5.10;1.70;;;13.10;99.90;;;;;;5022551;28;20212;-90
2023/01/04 13:53:53;;;;;;;5.10;1.57;;;13.00;99.90;;;;;;5025534;28;20208;-86
2023/01/04 13:56:22;;;;;;;4.27;1.30;;;13.00;99.90;;;;;;5040001;28;20191;-86
2023/01/04 13:58:50;;;;;;;6.37;1.50;;;13.00;99.90;;;;;;5035411;28;20203;-88
2023/01/04 14:01:22;;;;;;;2.57;1.40;;;13.00;99.90;;;;;;5037928;28;20211;-89
2023/01/04 14:03:51;;;;;;;6.90;1.70;;;13.00;99.90;;;;;;5037930;28;20204;-90
2023/01/04 14:06:24;;;;;;;4.17;1.87;;;13.00;99.90;;;;;;5037531;28;20270;-89
2023/01/04 14:08:56;;;;;;;5.17;1.40;;;13.00;99.90;;;;;;5037263;28;20214;-90
2023/01/04 14:17:35;;;;;;;8.07;1.63;;;13.00;99.90;;;;;;5017928;28;20191;-93
2023/01/04 14:20:04;;;;;;;5.83;1.97;;;13.00;99.90;;;;;;5016880;28;20208;-92
2023/01/04 14:25:43;;;;;;;8.87;4.60;;;12.90;99.90;;;;;;5056489;22;20237;-96
2023/01/04 14:28:50;;;;;;;3.93;2.60;;;12.80;99.90;;;;;;5034169;28;20218;-89
2023/01/04 14:31:37;;;;;;;5.67;2.10;;;12.90;99.90;;;;;;5034037;28;20732;-88